Time;durP1;ratioP1;P1;durP2;ratioP2;P2;SDS_P1;SDS_P2;PMS_P1;PMS_P2;Temp;Humidity;BMP_temperature;BMP_pressure;BME280_temperature;BME280_humidity;BME280_pressure;Samples;Min_cycle;Max_cycle;Signal;HPM_P1;HPM_P2
2021/06/19 00:00:22;;;;;;;6.73;2.70;;;26.20;76.10;;;;;;5035222;28;21082;-75
2021/06/19 00:02:49;;;;;;;3.93;2.30;;;26.20;75.00;;;;;;5035571;28;20869;-75
2021/06/19 00:05:17;;;;;;;6.37;2.73;;;26.20;74.90;;;;;;5034908;28;20552;-76
2021/06/19 00:07:45;;;;;;;3.00;2.70;;;26.20;74.60;;;;;;5035146;28;20442;-75
2021/06/19 00:10:14;;;;;;;7.37;2.30;;;26.20;75.30;;;;;;5035884;28;20530;-75
2021/06/19 00:12:41;;;;;;;2.40;2.13;;;26.10;75.30;;;;;;5035256;28;20534;-75
2021/06/19 00:15:10;;;;;;;3.10;2.43;;;26.10;75.60;;;;;;5035436;28;20561;-75
2021/06/19 00:17:38;;;;;;;4.57;2.40;;;26.10;76.00;;;;;;5036137;28;20474;-75
2021/06/19 00:20:06;;;;;;;5.87;2.60;;;26.00;76.60;;;;;;5036215;28;20485;-75
2021/06/19 00:22:33;;;;;;;5.30;2.50;;;26.00;76.90;;;;;;5036261;28;20544;-75
2021/06/19 00:25:01;;;;;;;3.43;2.70;;;26.00;77.10;;;;;;5035268;28;20548;-75
2021/06/19 00:27:31;;;;;;;3.40;2.70;;;25.90;78.30;;;;;;5033706;28;20899;-75
2021/06/19 00:29:58;;;;;;;4.73;3.23;;;25.80;81.80;;;;;;5033800;28;20442;-75
2021/06/19 00:32:24;;;;;;;3.70;3.27;;;25.60;85.70;;;;;;5033514;28;20458;-75
2021/06/19 00:34:51;;;;;;;5.83;3.80;;;25.50;86.70;;;;;;5033836;28;20869;-75
2021/06/19 00:37:18;;;;;;;5.97;3.27;;;25.30;87.80;;;;;;5033631;28;20529;-75
2021/06/19 00:39:45;;;;;;;4.53;3.63;;;25.30;88.00;;;;;;5033598;28;20486;-75
2021/06/19 00:42:17;;;;;;;6.63;3.50;;;25.20;88.30;;;;;;5033484;28;20996;-75
2021/06/19 00:44:44;;;;;;;6.70;3.67;;;25.20;88.10;;;;;;5033556;28;20556;-75
2021/06/19 00:47:11;;;;;;;4.80;3.20;;;25.20;88.30;;;;;;5033553;28;20451;-75
2021/06/19 00:49:38;;;;;;;4.30;3.07;;;25.20;88.60;;;;;;5033582;28;20542;-75
2021/06/19 00:52:05;;;;;;;5.60;3.90;;;25.20;88.20;;;;;;5033438;28;20540;-75
2021/06/19 00:54:33;;;;;;;5.00;2.70;;;25.20;88.10;;;;;;5033451;28;20471;-75
2021/06/19 00:57:00;;;;;;;4.93;2.70;;;25.30;85.90;;;;;;5033828;28;20461;-76
2021/06/19 00:59:29;;;;;;;4.23;3.00;;;25.30;85.40;;;;;;5033268;28;20984;-75
2021/06/19 01:01:55;;;;;;;4.10;2.60;;;25.30;85.50;;;;;;5033202;28;21015;-75
2021/06/19 01:04:22;;;;;;;5.87;3.50;;;25.40;86.40;;;;;;5033554;28;20552;-75
2021/06/19 01:06:49;;;;;;;5.20;3.20;;;25.40;86.10;;;;;;5033699;28;20536;-75
2021/06/19 01:09:16;;;;;;;2.30;2.10;;;25.30;87.70;;;;;;5033224;28;20484;-75
2021/06/19 01:11:43;;;;;;;3.77;2.73;;;25.20;88.70;;;;;;5033072;28;20537;-75
2021/06/19 01:14:09;;;;;;;3.03;2.73;;;25.10;89.80;;;;;;5033570;28;20474;-75
2021/06/19 01:16:38;;;;;;;2.73;2.30;;;24.90;90.60;;;;;;5033413;28;20446;-75
2021/06/19 01:19:05;;;;;;;5.63;2.33;;;24.90;91.10;;;;;;5033202;28;20840;-75
2021/06/19 01:21:32;;;;;;;5.33;2.47;;;24.80;91.80;;;;;;5033346;28;20461;-75
2021/06/19 01:24:00;;;;;;;2.90;2.53;;;24.80;91.80;;;;;;5033378;28;20555;-75
2021/06/19 01:26:30;;;;;;;7.17;3.03;;;24.80;92.10;;;;;;5033536;28;20463;-75
2021/06/19 01:28:58;;;;;;;4.50;3.17;;;24.80;91.90;;;;;;5033597;28;20524;-75
2021/06/19 01:31:26;;;;;;;4.87;2.63;;;24.80;91.90;;;;;;5032780;28;20556;-75
2021/06/19 01:33:53;;;;;;;4.90;3.20;;;24.80;91.70;;;;;;5033182;28;20480;-75
2021/06/19 01:36:21;;;;;;;4.67;3.10;;;24.80;91.70;;;;;;5033621;28;20453;-75
2021/06/19 01:38:51;;;;;;;5.13;2.97;;;24.80;91.10;;;;;;5033957;28;20531;-76
2021/06/19 01:41:20;;;;;;;5.10;3.17;;;24.70;91.20;;;;;;5036803;28;20455;-76
2021/06/19 01:43:50;;;;;;;4.50;2.97;;;24.80;91.10;;;;;;5037195;28;20479;-75
2021/06/19 01:46:17;;;;;;;3.80;2.60;;;24.80;91.40;;;;;;5036868;28;20537;-75
2021/06/19 01:48:44;;;;;;;5.90;3.30;;;24.80;90.70;;;;;;5037113;28;20529;-75
2021/06/19 01:51:12;;;;;;;4.90;3.37;;;24.90;90.90;;;;;;5036734;28;20545;-76
2021/06/19 01:53:40;;;;;;;4.60;3.40;;;24.90;90.50;;;;;;5036834;28;20458;-75
2021/06/19 01:56:07;;;;;;;3.60;3.20;;;24.90;90.60;;;;;;5036962;28;20538;-75
2021/06/19 01:58:34;;;;;;;5.97;3.33;;;25.00;90.50;;;;;;5036791;28;20445;-75
2021/06/19 02:01:03;;;;;;;7.93;3.27;;;25.00;90.20;;;;;;5036180;28;20521;-75
2021/06/19 02:03:30;;;;;;;4.43;3.40;;;25.10;90.10;;;;;;5036531;28;20625;-76
2021/06/19 02:05:57;;;;;;;6.13;3.60;;;25.10;89.30;;;;;;5036631;28;20865;-75
2021/06/19 02:08:24;;;;;;;3.97;3.57;;;25.00;90.00;;;;;;5036516;28;20445;-75
2021/06/19 02:10:51;;;;;;;4.50;3.00;;;25.00;90.10;;;;;;5036332;28;20781;-75
2021/06/19 02:13:17;;;;;;;3.43;3.00;;;25.00;90.50;;;;;;5036545;28;20445;-75
2021/06/19 02:15:46;;;;;;;3.77;2.80;;;24.80;90.60;;;;;;5037024;28;20564;-74
2021/06/19 02:18:15;;;;;;;3.60;3.07;;;24.70;90.50;;;;;;5036794;28;20457;-75
2021/06/19 02:20:43;;;;;;;5.73;3.27;;;24.70;91.30;;;;;;5036197;28;20936;-75
2021/06/19 02:23:10;;;;;;;5.30;2.70;;;24.80;91.30;;;;;;5036418;28;20534;-74
2021/06/19 02:25:37;;;;;;;5.10;3.17;;;24.60;92.20;;;;;;5035912;28;20500;-74
2021/06/19 02:28:07;;;;;;;3.83;2.83;;;24.50;92.50;;;;;;5036096;28;20954;-74
2021/06/19 02:30:36;;;;;;;4.17;3.77;;;24.50;93.40;;;;;;5035539;28;20532;-75
2021/06/19 02:33:04;;;;;;;4.80;3.33;;;24.60;93.70;;;;;;5035966;28;20540;-75
2021/06/19 02:35:34;;;;;;;3.57;2.90;;;24.40;95.00;;;;;;5035699;28;20479;-74
2021/06/19 02:38:02;;;;;;;4.37;3.50;;;24.20;96.30;;;;;;5036003;28;20535;-74
2021/06/19 02:40:29;;;;;;;4.37;3.77;;;24.10;95.20;;;;;;5035805;28;20581;-75
2021/06/19 02:42:56;;;;;;;8.73;3.20;;;24.00;95.70;;;;;;5036043;28;20930;-75
2021/06/19 02:45:23;;;;;;;7.50;3.00;;;24.10;96.40;;;;;;5036368;28;20538;-74
2021/06/19 02:47:52;;;;;;;8.10;3.47;;;24.10;95.80;;;;;;5035854;28;21005;-74
2021/06/19 02:50:22;;;;;;;5.73;3.33;;;24.20;95.70;;;;;;5035121;28;20459;-75
2021/06/19 02:52:51;;;;;;;8.67;4.80;;;24.20;95.40;;;;;;5036225;28;20449;-75
2021/06/19 02:55:19;;;;;;;8.70;5.80;;;24.20;95.70;;;;;;5037093;28;20471;-74
2021/06/19 02:57:46;;;;;;;3.67;3.33;;;24.20;96.60;;;;;;5036592;28;20479;-76
2021/06/19 03:00:15;;;;;;;6.23;3.53;;;24.10;97.10;;;;;;5035549;28;20480;-74
2021/06/19 03:02:42;;;;;;;6.40;4.03;;;24.10;97.20;;;;;;5035481;28;20801;-75
2021/06/19 03:05:11;;;;;;;5.77;3.77;;;24.10;97.40;;;;;;5035568;28;20586;-74
2021/06/19 03:07:38;;;;;;;6.80;3.73;;;24.10;97.20;;;;;;5035337;28;20449;-74
2021/06/19 03:10:08;;;;;;;6.73;3.50;;;24.10;96.90;;;;;;5035501;28;20537;-74
2021/06/19 03:12:35;;;;;;;4.40;3.10;;;24.10;96.70;;;;;;5035930;28;20574;-74
2021/06/19 03:15:02;;;;;;;4.93;3.23;;;24.10;96.90;;;;;;5035463;28;20464;-74
2021/06/19 03:17:29;;;;;;;4.70;3.87;;;24.10;97.10;;;;;;5035282;28;20475;-74
2021/06/19 03:19:56;;;;;;;4.90;3.37;;;24.10;97.30;;;;;;5034891;28;20568;-75
2021/06/19 03:22:23;;;;;;;10.20;3.90;;;24.10;97.20;;;;;;5035171;28;20567;-74
2021/06/19 03:24:50;;;;;;;5.37;3.47;;;24.10;97.50;;;;;;5035132;28;20910;-74
2021/06/19 03:27:19;;;;;;;13.10;5.07;;;24.20;97.70;;;;;;5034907;28;21013;-75
2021/06/19 03:29:46;;;;;;;11.23;5.27;;;24.20;97.50;;;;;;5035015;28;20789;-76
2021/06/19 03:32:13;;;;;;;6.63;4.17;;;24.20;97.60;;;;;;5034693;28;20546;-75
2021/06/19 03:34:41;;;;;;;6.10;4.10;;;24.20;98.00;;;;;;5034524;28;20551;-74
2021/06/19 03:37:08;;;;;;;6.27;3.77;;;24.20;98.50;;;;;;5034812;28;20937;-74
2021/06/19 03:39:36;;;;;;;7.30;3.83;;;24.20;99.20;;;;;;5034691;28;20986;-74
2021/06/19 03:42:04;;;;;;;4.93;3.67;;;24.00;99.90;;;;;;5034475;28;20452;-74
2021/06/19 03:44:32;;;;;;;5.90;3.80;;;24.00;99.90;;;;;;5034611;28;20551;-74
2021/06/19 03:46:59;;;;;;;8.47;4.27;;;24.00;99.90;;;;;;5034753;28;20542;-74
2021/06/19 03:49:26;;;;;;;4.90;4.30;;;23.90;99.90;;;;;;5035054;28;20467;-75
2021/06/19 03:51:52;;;;;;;5.80;4.40;;;23.80;99.90;;;;;;5034348;28;20444;-74
2021/06/19 03:54:20;;;;;;;7.20;5.07;;;23.90;99.90;;;;;;5034271;28;20551;-74
2021/06/19 03:56:47;;;;;;;7.47;5.07;;;23.80;99.90;;;;;;5034383;28;20452;-74
2021/06/19 03:59:13;;;;;;;9.13;5.17;;;23.90;99.90;;;;;;5034264;28;20487;-75
2021/06/19 04:01:42;;;;;;;7.43;5.10;;;23.80;99.90;;;;;;5033628;28;21067;-75
2021/06/19 04:04:08;;;;;;;7.83;4.87;;;23.80;99.90;;;;;;5034261;28;20969;-75
2021/06/19 04:06:35;;;;;;;8.00;4.67;;;23.80;99.90;;;;;;5034012;28;20539;-74
2021/06/19 04:09:02;;;;;;;8.13;4.20;;;23.80;99.90;;;;;;5033871;28;20530;-74
2021/06/19 04:11:29;;;;;;;6.67;4.73;;;23.90;99.90;;;;;;5034013;28;20467;-74
2021/06/19 04:13:56;;;;;;;5.97;4.47;;;23.90;99.90;;;;;;5033967;28;20551;-75
2021/06/19 04:16:22;;;;;;;5.73;4.10;;;23.90;99.90;;;;;;5034101;28;20871;-75
2021/06/19 04:18:51;;;;;;;5.33;4.37;;;24.00;99.90;;;;;;5034036;28;20530;-75
2021/06/19 04:21:18;;;;;;;7.90;4.40;;;24.00;99.90;;;;;;5033587;28;20565;-74
2021/06/19 04:23:44;;;;;;;5.50;4.77;;;24.00;99.90;;;;;;5034015;28;20557;-75
2021/06/19 04:26:11;;;;;;;5.67;4.10;;;24.00;99.90;;;;;;5033661;28;20543;-75
2021/06/19 04:28:38;;;;;;;5.90;4.80;;;24.00;99.90;;;;;;5034000;28;20594;-75
2021/06/19 04:31:05;;;;;;;6.03;4.50;;;24.00;99.90;;;;;;5033545;28;20939;-75
2021/06/19 04:33:32;;;;;;;7.40;4.60;;;24.00;99.90;;;;;;5034029;28;20486;-75
2021/06/19 04:36:01;;;;;;;8.63;4.43;;;23.70;99.90;;;;;;5034371;28;20874;-74
2021/06/19 04:38:28;;;;;;;8.47;4.90;;;23.50;99.90;;;;;;5034759;28;20447;-75
2021/06/19 04:40:57;;;;;;;7.83;5.40;;;23.40;99.90;;;;;;5034504;28;20842;-74
2021/06/19 04:43:29;;;;;;;6.87;5.10;;;23.30;99.90;;;;;;5033986;28;20447;-75
2021/06/19 04:45:55;;;;;;;6.23;4.90;;;23.50;99.90;;;;;;5033784;28;20443;-75
2021/06/19 04:48:22;;;;;;;6.70;5.07;;;23.60;99.90;;;;;;5033990;28;20447;-74
2021/06/19 04:50:49;;;;;;;8.77;4.90;;;23.60;99.90;;;;;;5033785;28;20470;-75
2021/06/19 04:53:18;;;;;;;5.90;4.63;;;23.80;99.90;;;;;;5033522;28;20935;-75
2021/06/19 04:55:45;;;;;;;6.80;4.43;;;23.90;99.90;;;;;;5033665;28;20503;-74
2021/06/19 04:58:11;;;;;;;5.77;4.67;;;24.00;99.90;;;;;;5033599;28;20553;-74
2021/06/19 05:00:38;;;;;;;5.53;4.50;;;24.10;99.90;;;;;;5033338;28;20496;-75
2021/06/19 05:03:06;;;;;;;7.40;4.70;;;24.10;99.90;;;;;;5033815;28;20866;-75
2021/06/19 05:05:33;;;;;;;8.03;4.50;;;23.90;99.90;;;;;;5033788;28;20829;-75
2021/06/19 05:08:00;;;;;;;7.70;5.70;;;23.80;99.90;;;;;;5033723;28;20802;-74
2021/06/19 05:10:29;;;;;;;8.80;5.20;;;23.70;99.90;;;;;;5033479;28;20451;-75
2021/06/19 05:12:55;;;;;;;8.50;5.13;;;23.60;99.90;;;;;;5034277;28;20443;-74
2021/06/19 05:15:25;;;;;;;5.33;4.77;;;23.70;99.90;;;;;;5038166;28;20894;-74
2021/06/19 05:17:52;;;;;;;7.20;4.90;;;23.60;99.90;;;;;;5038300;28;20457;-74
2021/06/19 05:20:19;;;;;;;9.40;5.60;;;23.50;99.90;;;;;;5037861;28;20474;-74
2021/06/19 05:22:46;;;;;;;8.13;4.97;;;23.40;99.90;;;;;;5037505;28;20454;-75
2021/06/19 05:25:14;;;;;;;5.73;4.80;;;23.60;99.90;;;;;;5037576;28;20563;-75
2021/06/19 05:27:43;;;;;;;9.53;5.20;;;23.70;99.90;;;;;;5037563;28;20520;-74
2021/06/19 05:30:10;;;;;;;6.17;5.20;;;23.60;99.90;;;;;;5037254;28;20957;-74
2021/06/19 05:32:37;;;;;;;6.73;4.80;;;23.60;99.90;;;;;;5037096;28;20459;-74
2021/06/19 05:35:05;;;;;;;12.83;5.07;;;23.70;99.90;;;;;;5037363;28;20471;-74
2021/06/19 05:37:32;;;;;;;6.30;4.67;;;23.60;99.90;;;;;;5037231;28;20528;-74
2021/06/19 05:39:59;;;;;;;8.00;4.87;;;23.60;99.90;;;;;;5036907;28;20534;-74
2021/06/19 05:42:26;;;;;;;7.83;5.17;;;23.60;99.90;;;;;;5037356;28;20874;-75
2021/06/19 05:44:54;;;;;;;6.77;4.70;;;23.70;99.90;;;;;;5036944;28;20463;-74
2021/06/19 05:47:21;;;;;;;6.70;4.93;;;23.80;99.90;;;;;;5036912;28;20467;-74
2021/06/19 05:49:48;;;;;;;7.30;5.27;;;24.00;99.90;;;;;;5036717;28;20859;-75
2021/06/19 05:52:15;;;;;;;7.97;5.80;;;24.10;99.90;;;;;;5036782;28;20436;-74
2021/06/19 05:54:42;;;;;;;6.77;5.13;;;24.30;99.90;;;;;;5036389;28;20496;-74
2021/06/19 05:57:09;;;;;;;6.10;5.00;;;24.50;99.90;;;;;;5036831;28;20533;-74
2021/06/19 05:59:37;;;;;;;9.50;5.13;;;24.60;99.90;;;;;;5036837;28;20859;-74
2021/06/19 06:02:06;;;;;;;7.47;5.40;;;24.60;99.90;;;;;;5036198;28;21073;-74
2021/06/19 06:04:35;;;;;;;6.60;5.50;;;24.70;99.90;;;;;;5036579;28;20552;-74
2021/06/19 06:07:03;;;;;;;7.70;5.37;;;24.70;99.90;;;;;;5036737;28;20981;-74
2021/06/19 06:09:29;;;;;;;7.10;5.77;;;24.80;99.90;;;;;;5036551;28;20448;-74
2021/06/19 06:11:56;;;;;;;7.93;5.70;;;24.80;99.90;;;;;;5036507;28;20484;-74
2021/06/19 06:14:23;;;;;;;6.73;5.27;;;24.80;99.90;;;;;;5036668;28;20512;-74
2021/06/19 06:16:50;;;;;;;6.30;5.47;;;24.80;99.90;;;;;;5036373;28;20527;-74
2021/06/19 06:19:21;;;;;;;7.93;5.77;;;24.90;99.90;;;;;;5036231;28;20936;-74
2021/06/19 06:21:48;;;;;;;8.80;5.13;;;24.90;99.90;;;;;;5036367;28;20855;-74
2021/06/19 06:24:15;;;;;;;6.13;5.17;;;25.00;99.90;;;;;;5035894;28;20474;-74
2021/06/19 06:26:42;;;;;;;8.00;5.67;;;25.00;99.90;;;;;;5035900;28;20535;-74
2021/06/19 06:29:08;;;;;;;7.80;5.10;;;24.70;99.90;;;;;;5036244;28;20457;-74
2021/06/19 06:31:35;;;;;;;5.90;5.03;;;24.60;99.90;;;;;;5035759;28;20452;-74
2021/06/19 06:34:02;;;;;;;7.47;5.63;;;24.50;99.90;;;;;;5035916;28;20491;-74
2021/06/19 06:36:30;;;;;;;9.57;5.37;;;24.60;99.90;;;;;;5036025;28;20544;-74
2021/06/19 06:38:58;;;;;;;8.40;6.17;;;24.60;99.90;;;;;;5035908;28;20540;-74
2021/06/19 06:41:25;;;;;;;8.43;6.20;;;24.60;99.90;;;;;;5035725;28;20480;-74
2021/06/19 06:43:52;;;;;;;9.90;5.30;;;24.60;99.90;;;;;;5035678;28;20556;-74
2021/06/19 06:46:18;;;;;;;5.77;5.13;;;24.90;99.90;;;;;;5036284;28;20545;-74
2021/06/19 06:48:45;;;;;;;9.20;5.90;;;25.20;99.90;;;;;;5036495;28;20940;-75
2021/06/19 06:51:12;;;;;;;7.80;5.70;;;25.40;99.90;;;;;;5035457;28;20447;-75
2021/06/19 06:53:40;;;;;;;9.60;5.60;;;25.60;99.90;;;;;;5036013;28;20537;-74
2021/06/19 06:56:08;;;;;;;7.10;5.20;;;25.60;99.90;;;;;;5035891;28;20548;-75
2021/06/19 06:58:35;;;;;;;9.17;5.27;;;25.50;99.90;;;;;;5036079;28;20533;-74
2021/06/19 07:01:03;;;;;;;7.50;5.30;;;25.50;99.90;;;;;;5036194;28;20521;-75
2021/06/19 07:03:29;;;;;;;7.57;4.97;;;25.60;99.90;;;;;;5036025;28;20486;-75
2021/06/19 07:05:56;;;;;;;8.53;5.40;;;25.90;99.90;;;;;;5035754;28;20446;-75
2021/06/19 07:08:23;;;;;;;5.40;4.90;;;26.00;99.90;;;;;;5035529;28;20529;-74
2021/06/19 07:10:51;;;;;;;8.10;5.30;;;26.10;99.90;;;;;;5036046;28;20447;-75
2021/06/19 07:13:18;;;;;;;6.30;5.13;;;26.30;99.90;;;;;;5035681;28;21015;-75
2021/06/19 07:15:45;;;;;;;6.20;4.63;;;26.50;99.30;;;;;;5036359;28;20470;-75
2021/06/19 07:18:12;;;;;;;6.10;5.00;;;26.60;98.80;;;;;;5036229;28;20834;-75
2021/06/19 07:20:39;;;;;;;7.30;4.80;;;26.70;98.60;;;;;;5035968;28;20502;-74
2021/06/19 07:23:06;;;;;;;6.00;5.17;;;26.80;98.10;;;;;;5036516;28;20518;-74
2021/06/19 07:25:33;;;;;;;5.10;4.70;;;27.00;98.30;;;;;;5036962;28;20502;-75
2021/06/19 07:28:01;;;;;;;6.23;5.60;;;27.10;97.60;;;;;;5036767;28;20452;-75
2021/06/19 07:30:28;;;;;;;5.80;5.17;;;27.30;96.90;;;;;;5035993;28;20447;-75
2021/06/19 07:32:56;;;;;;;5.50;4.80;;;27.50;97.00;;;;;;5036835;28;20522;-76
2021/06/19 07:35:23;;;;;;;5.90;4.80;;;27.50;96.20;;;;;;5037761;28;20471;-74
2021/06/19 07:37:50;;;;;;;6.40;4.90;;;27.30;95.70;;;;;;5036047;28;20517;-75
2021/06/19 07:40:17;;;;;;;7.07;5.47;;;27.30;95.70;;;;;;5037998;28;20542;-75
2021/06/19 07:42:45;;;;;;;7.60;5.20;;;27.30;95.00;;;;;;5038375;28;20562;-74
2021/06/19 07:45:14;;;;;;;7.00;4.70;;;27.40;94.90;;;;;;5037561;28;20799;-75
2021/06/19 07:47:41;;;;;;;7.07;5.70;;;27.70;95.80;;;;;;5037977;28;20564;-75
2021/06/19 07:50:08;;;;;;;7.53;5.57;;;27.90;95.50;;;;;;5038159;28;20533;-75
2021/06/19 07:52:35;;;;;;;10.70;4.80;;;28.10;94.70;;;;;;5037503;28;20483;-75
2021/06/19 07:55:02;;;;;;;6.30;5.23;;;28.60;93.70;;;;;;5037399;28;20550;-75
2021/06/19 07:57:31;;;;;;;7.77;5.73;;;28.90;91.90;;;;;;5038740;28;20529;-75
2021/06/19 07:59:57;;;;;;;5.90;5.23;;;28.90;91.80;;;;;;5036870;28;20848;-76
2021/06/19 08:02:26;;;;;;;6.53;5.17;;;29.10;91.80;;;;;;5037231;28;20506;-75
2021/06/19 08:04:52;;;;;;;6.70;5.70;;;29.10;91.60;;;;;;5036568;28;20475;-75
2021/06/19 08:07:19;;;;;;;6.70;5.50;;;29.00;91.80;;;;;;5037805;28;20473;-75
2021/06/19 08:09:46;;;;;;;10.67;6.23;;;29.00;92.30;;;;;;5036708;28;20538;-75
2021/06/19 08:12:13;;;;;;;10.67;7.53;;;29.20;91.70;;;;;;5035845;28;20874;-75
2021/06/19 08:14:40;;;;;;;6.20;5.60;;;29.50;91.30;;;;;;5035824;28;20988;-75
2021/06/19 08:17:15;;;;;;;7.53;5.57;;;29.50;90.70;;;;;;5035081;28;20947;-76
2021/06/19 08:19:44;;;;;;;10.00;5.63;;;29.90;91.00;;;;;;5034814;28;20453;-75
2021/06/19 08:22:11;;;;;;;8.17;6.47;;;30.00;88.70;;;;;;5034763;28;20833;-75
2021/06/19 08:24:38;;;;;;;7.83;5.67;;;30.20;88.10;;;;;;5035371;28;20991;-75
2021/06/19 08:27:06;;;;;;;8.03;5.87;;;30.30;87.30;;;;;;5034978;28;21027;-76
2021/06/19 08:29:33;;;;;;;8.40;6.10;;;30.50;87.20;;;;;;5034387;28;20536;-76
2021/06/19 08:32:00;;;;;;;6.17;5.57;;;31.00;88.40;;;;;;5034240;28;20991;-76
2021/06/19 08:34:27;;;;;;;6.37;5.70;;;31.70;85.50;;;;;;5034932;28;20467;-76
2021/06/19 08:36:55;;;;;;;5.63;5.10;;;32.50;83.10;;;;;;5035593;28;20445;-76
2021/06/19 08:39:22;;;;;;;6.27;5.50;;;33.40;78.00;;;;;;5035328;28;20546;-76
2021/06/19 08:41:50;;;;;;;6.63;5.70;;;33.80;74.90;;;;;;5035019;28;20999;-76
2021/06/19 08:44:21;;;;;;;6.23;5.37;;;34.10;70.10;;;;;;5036221;28;20558;-77
2021/06/19 08:46:50;;;;;;;6.20;5.60;;;34.20;70.00;;;;;;5036920;28;20443;-76
2021/06/19 08:49:17;;;;;;;8.43;6.17;;;34.80;66.60;;;;;;5036417;28;20802;-77
2021/06/19 08:51:45;;;;;;;7.10;6.50;;;34.70;66.00;;;;;;5036815;28;20441;-77
2021/06/19 08:54:13;;;;;;;7.90;7.20;;;35.20;63.70;;;;;;5037054;28;20506;-76
2021/06/19 08:56:40;;;;;;;8.30;7.50;;;35.80;59.90;;;;;;5036624;28;20445;-76
2021/06/19 08:59:07;;;;;;;6.93;6.10;;;36.10;57.70;;;;;;5035399;28;20449;-76
2021/06/19 09:01:34;;;;;;;8.23;6.60;;;36.60;57.10;;;;;;5035669;28;20565;-77
2021/06/19 09:04:04;;;;;;;6.47;5.80;;;37.80;54.50;;;;;;5037546;28;20542;-77
2021/06/19 09:06:32;;;;;;;6.97;6.33;;;39.10;53.40;;;;;;5036201;28;20449;-77
2021/06/19 09:09:00;;;;;;;7.30;6.60;;;40.00;49.10;;;;;;5036227;28;20546;-77
2021/06/19 09:11:34;;;;;;;9.97;7.20;;;39.70;48.60;;;;;;5036129;28;20864;-77
2021/06/19 09:14:02;;;;;;;8.77;6.60;;;39.90;47.50;;;;;;5035623;28;20893;-76
2021/06/19 09:16:29;;;;;;;7.03;6.40;;;39.70;47.00;;;;;;5035363;28;20538;-77
2021/06/19 09:18:56;;;;;;;7.27;6.57;;;39.70;47.60;;;;;;5036175;28;20458;-77
2021/06/19 09:21:35;;;;;;;7.33;6.63;;;40.10;46.80;;;;;;5034914;28;20573;-76
2021/06/19 09:24:02;;;;;;;8.23;6.77;;;40.80;45.50;;;;;;5035020;28;20473;-77
2021/06/19 09:26:31;;;;;;;6.30;5.80;;;41.00;43.80;;;;;;5036121;28;20477;-77
2021/06/19 09:29:11;;;;;;;6.70;5.80;;;41.30;44.10;;;;;;5035369;28;20465;-77
2021/06/19 09:31:40;;;;;;;6.83;6.23;;;41.70;42.80;;;;;;5035266;28;20459;-77
2021/06/19 09:34:09;;;;;;;6.70;6.10;;;41.60;42.70;;;;;;5035442;28;20889;-77
2021/06/19 09:36:44;;;;;;;7.00;6.30;;;41.50;44.10;;;;;;5034667;28;20955;-77
2021/06/19 09:39:14;;;;;;;6.93;6.33;;;41.50;42.40;;;;;;5036167;28;20533;-77
2021/06/19 09:41:42;;;;;;;6.53;5.80;;;42.20;41.90;;;;;;5034768;28;20885;-77
2021/06/19 09:44:11;;;;;;;6.83;6.23;;;42.50;40.80;;;;;;5035710;28;20980;-78
2021/06/19 09:46:38;;;;;;;7.17;6.57;;;42.90;41.10;;;;;;5034997;28;20442;-77
2021/06/19 09:49:14;;;;;;;8.00;5.83;;;42.70;41.90;;;;;;5035678;28;20924;-77
2021/06/19 09:51:48;;;;;;;6.37;5.83;;;42.50;41.20;;;;;;5034994;28;20442;-77
2021/06/19 09:54:16;;;;;;;6.83;6.23;;;42.90;40.40;;;;;;5035114;28;20892;-78
2021/06/19 09:56:48;;;;;;;7.63;6.33;;;42.50;39.00;;;;;;5035183;28;20453;-78
2021/06/19 09:59:27;;;;;;;6.87;6.13;;;42.30;41.30;;;;;;5036086;28;20530;-77
2021/06/19 10:01:55;;;;;;;9.60;6.90;;;42.10;40.10;;;;;;5038307;28;20661;-77
2021/06/19 10:04:23;;;;;;;6.80;6.10;;;41.70;40.80;;;;;;5038533;28;20553;-77
2021/06/19 10:06:51;;;;;;;6.67;6.10;;;41.20;41.80;;;;;;5039201;28;20474;-77
2021/06/19 10:09:19;;;;;;;6.80;6.10;;;41.10;43.10;;;;;;5039873;28;20530;-78
2021/06/19 10:11:48;;;;;;;6.77;6.13;;;41.60;42.50;;;;;;5039080;28;20937;-78
2021/06/19 10:14:18;;;;;;;7.97;7.20;;;42.50;40.20;;;;;;5038433;28;20991;-78
2021/06/19 10:16:48;;;;;;;8.10;7.40;;;42.60;39.60;;;;;;5040115;28;20438;-78
2021/06/19 10:19:18;;;;;;;7.00;6.30;;;43.00;39.00;;;;;;5039972;28;20585;-77
2021/06/19 10:21:45;;;;;;;7.40;6.40;;;43.20;39.20;;;;;;5038562;28;20474;-78
2021/06/19 10:24:13;;;;;;;7.60;6.80;;;43.20;39.50;;;;;;5039747;28;20502;-78
2021/06/19 10:26:40;;;;;;;6.47;5.97;;;42.90;41.10;;;;;;5038718;28;20449;-77
2021/06/19 10:29:09;;;;;;;9.70;6.97;;;42.30;40.50;;;;;;5039968;28;20809;-77
2021/06/19 10:31:42;;;;;;;6.50;5.90;;;41.70;41.00;;;;;;5038294;28;20492;-77
2021/06/19 10:34:21;;;;;;;7.10;6.50;;;41.10;42.30;;;;;;5038457;28;20554;-78
2021/06/19 10:36:48;;;;;;;7.70;6.77;;;40.30;42.90;;;;;;5039084;28;20479;-77
2021/06/19 10:39:35;;;;;;;7.93;6.87;;;39.30;44.90;;;;;;5039876;28;20473;-78
2021/06/19 10:42:02;;;;;;;6.83;6.13;;;38.30;45.80;;;;;;5039855;28;20553;-77
2021/06/19 10:44:53;;;;;;;8.23;6.50;;;37.70;47.50;;;;;;5039749;28;20562;-78
2021/06/19 10:47:22;;;;;;;6.73;6.03;;;37.00;48.00;;;;;;5039706;28;20447;-77
2021/06/19 10:49:52;;;;;;;7.07;6.37;;;36.30;50.00;;;;;;5038166;28;20539;-77
2021/06/19 10:52:34;;;;;;;7.43;6.67;;;35.60;51.60;;;;;;5038095;28;20451;-77
2021/06/19 10:55:27;;;;;;;6.43;5.83;;;35.40;52.00;;;;;;5037968;28;20903;-77
2021/06/19 10:57:56;;;;;;;5.93;5.43;;;35.30;52.40;;;;;;5037201;28;20447;-77
2021/06/19 11:00:44;;;;;;;6.00;5.20;;;35.10;54.60;;;;;;5037380;28;20482;-77
2021/06/19 11:03:11;;;;;;;6.83;6.13;;;35.00;51.80;;;;;;5037180;28;20470;-77
2021/06/19 11:05:59;;;;;;;6.67;5.97;;;34.80;53.30;;;;;;5036573;28;20873;-77
2021/06/19 11:08:27;;;;;;;7.50;6.47;;;34.70;55.00;;;;;;5037144;28;20501;-77
2021/06/19 11:10:59;;;;;;;6.27;5.33;;;34.60;54.50;;;;;;5035977;28;20533;-77
2021/06/19 11:13:45;;;;;;;6.60;5.97;;;34.60;53.50;;;;;;5036882;28;20439;-76
2021/06/19 11:16:50;;;;;;;6.80;5.37;;;34.60;53.20;;;;;;5037506;28;20442;-77
2021/06/19 11:19:44;;;;;;;6.30;5.70;;;34.50;53.70;;;;;;5037083;28;20442;-77
2021/06/19 11:22:33;;;;;;;7.10;6.40;;;34.60;54.80;;;;;;5036642;28;20518;-77
2021/06/19 11:25:25;;;;;;;6.53;5.93;;;34.60;54.40;;;;;;5036336;28;20481;-77
2021/06/19 11:27:58;;;;;;;6.80;5.87;;;34.60;54.80;;;;;;5036294;28;20929;-77
2021/06/19 11:30:43;;;;;;;6.50;5.90;;;34.50;54.10;;;;;;5036349;28;20482;-77
2021/06/19 11:33:45;;;;;;;7.73;5.90;;;34.50;54.40;;;;;;5037096;28;20944;-77
2021/06/19 11:36:35;;;;;;;8.43;6.50;;;34.70;53.50;;;;;;5035851;28;20553;-77
2021/06/19 11:39:09;;;;;;;6.40;5.80;;;34.40;53.80;;;;;;5035653;28;20525;-77
2021/06/19 11:41:39;;;;;;;8.93;7.03;;;34.30;55.10;;;;;;5035424;28;20442;-77
2021/06/19 11:44:14;;;;;;;11.60;7.27;;;34.30;55.60;;;;;;5035213;28;21011;-77
2021/06/19 11:46:57;;;;;;;7.13;6.43;;;34.30;55.80;;;;;;5036106;28;20446;-77
2021/06/19 11:49:41;;;;;;;6.93;6.30;;;34.40;55.20;;;;;;5035954;28;20521;-77
2021/06/19 11:52:10;;;;;;;7.10;6.50;;;34.30;56.50;;;;;;5035453;28;20477;-77
2021/06/19 11:54:43;;;;;;;8.00;6.43;;;34.30;56.70;;;;;;5035575;28;20554;-77
2021/06/19 11:57:11;;;;;;;7.70;6.70;;;33.90;55.30;;;;;;5035641;28;20435;-77
2021/06/19 11:59:38;;;;;;;6.40;5.70;;;33.40;56.30;;;;;;5035193;28;20980;-76
2021/06/19 12:02:14;;;;;;;11.13;7.50;;;33.20;56.40;;;;;;5035201;28;20542;-76
2021/06/19 12:04:40;;;;;;;6.70;6.10;;;33.00;57.20;;;;;;5035543;28;20473;-77
2021/06/19 12:07:07;;;;;;;6.87;6.27;;;33.20;58.40;;;;;;5035650;28;20474;-77
2021/06/19 12:09:35;;;;;;;6.10;5.50;;;33.20;56.50;;;;;;5035379;28;20846;-76
2021/06/19 12:12:06;;;;;;;6.70;6.10;;;33.20;56.90;;;;;;5035043;28;21016;-76
2021/06/19 12:14:34;;;;;;;6.53;5.90;;;33.30;57.70;;;;;;5035620;28;20868;-77
2021/06/19 12:17:05;;;;;;;8.50;5.50;;;33.60;55.50;;;;;;5035613;28;20443;-77
2021/06/19 12:19:34;;;;;;;7.70;5.70;;;33.90;54.50;;;;;;5035283;28;20447;-77
2021/06/19 12:22:03;;;;;;;6.60;4.73;;;34.10;54.00;;;;;;5034963;28;20451;-76
2021/06/19 12:24:32;;;;;;;5.47;4.97;;;34.20;53.50;;;;;;5034833;28;20509;-76
2021/06/19 12:27:09;;;;;;;7.87;5.30;;;34.30;52.50;;;;;;5034685;28;20442;-76
2021/06/19 12:29:40;;;;;;;6.07;5.10;;;34.40;52.70;;;;;;5035188;28;20856;-77
2021/06/19 12:32:26;;;;;;;5.90;5.30;;;34.40;50.70;;;;;;5034861;28;20507;-77
2021/06/19 12:34:55;;;;;;;4.73;4.33;;;34.30;50.70;;;;;;5034943;28;20467;-76
2021/06/19 12:37:24;;;;;;;9.10;4.50;;;34.40;49.10;;;;;;5035411;28;20542;-77
2021/06/19 12:39:51;;;;;;;5.13;4.63;;;34.50;48.30;;;;;;5035272;28;20442;-78
2021/06/19 12:42:41;;;;;;;6.50;4.10;;;34.50;48.70;;;;;;5034795;28;20501;-76
2021/06/19 12:45:16;;;;;;;6.57;4.57;;;34.40;48.80;;;;;;5034914;28;20584;-77
2021/06/19 12:47:45;;;;;;;4.07;3.70;;;34.40;46.90;;;;;;5034790;28;20439;-76
2021/06/19 12:50:14;;;;;;;4.10;3.80;;;34.50;47.50;;;;;;5034183;28;20928;-76
2021/06/19 12:53:01;;;;;;;5.87;4.37;;;34.50;47.10;;;;;;5034755;28;20530;-76
2021/06/19 12:55:33;;;;;;;5.10;4.40;;;34.50;48.20;;;;;;5035136;28;20893;-77